Lavaltrie, Canada
Current Conditions -  °F | °C
As of 9:00 AM on Thursday 27 Nov 2014 (Local Time) from CYHU Reporting Station
Overcast Overcast  
Wind Chill: -9°   Ceiling: 3400
Heat Index: -3°   Visibility: 9mi
Dew Point: -8°   Wind: 12mph
Humidity: 69%   Direction: 10°N
Pressure: 30.04"   Gusts: NA
Location:  45.88°N, 73.28°W
Report Text: CYHU 271400Z AUTO 01010KT 9SM OVC034 M03/M08 A3004 RMK SLP174
Loading
Personal Weather Stations






























Interactive Weather Map New forecast layout! Learn more

10-Day Weather Forecast

Advertisements
Track Severe Weather on mobile